Time;durP1;ratioP1;P1;durP2;ratioP2;P2;SDS_P1;SDS_P2;PMS_P1;PMS_P2;Temp;Humidity;BMP_temperature;BMP_pressure;BME280_temperature;BME280_humidity;BME280_pressure;Samples;Min_cycle;Max_cycle;Signal;HPM_P1;HPM_P2
2023/04/18 00:02:19;;;;;;;;;;;8.80;99.90;;;;;;5075103;28;19924;-61
2023/04/18 00:04:45;;;;;;;;;;;8.70;99.90;;;;;;5076357;28;20000;-62
2023/04/18 00:07:13;;;;;;;;;;;8.70;99.90;;;;;;5068234;28;20007;-62
2023/04/18 00:09:40;;;;;;;;;;;8.80;99.90;;;;;;5082164;28;19919;-63
2023/04/18 00:12:05;;;;;;;;;;;8.80;99.90;;;;;;5079974;28;19956;-63
2023/04/18 00:14:33;;;;;;;;;;;8.70;99.90;;;;;;5074360;28;19968;-62
2023/04/18 00:17:00;;;;;;;;;;;8.70;99.90;;;;;;5075571;28;19971;-62
2023/04/18 00:19:26;;;;;;;;;;;8.60;99.90;;;;;;5075811;28;20023;-63
2023/04/18 00:21:52;;;;;;;;;;;8.50;99.90;;;;;;5069923;28;20368;-62
2023/04/18 00:24:18;;;;;;;;;;;8.50;99.90;;;;;;5077656;28;20421;-61
2023/04/18 00:26:44;;;;;;;;;;;8.50;99.90;;;;;;5070837;28;19920;-62
2023/04/18 00:29:10;;;;;;;;;;;8.40;99.90;;;;;;5070009;28;19920;-61
2023/04/18 00:31:36;;;;;;;;;;;8.40;99.90;;;;;;5080740;28;19912;-62
2023/04/18 00:34:01;;;;;;;;;;;8.50;99.90;;;;;;5070079;28;19961;-61
2023/04/18 00:36:27;;;;;;;;;;;8.50;99.90;;;;;;5078050;28;20268;-60
2023/04/18 00:38:52;;;;;;;;;;;8.50;99.90;;;;;;5073777;28;20301;-63
2023/04/18 00:41:19;;;;;;;;;;;8.50;99.90;;;;;;5094948;28;20395;-63
2023/04/18 00:43:44;;;;;;;;;;;8.50;99.90;;;;;;5071889;28;19927;-62
2023/04/18 00:46:10;;;;;;;;;;;8.50;99.90;;;;;;5067709;28;19921;-63
2023/04/18 00:48:37;;;;;;;;;;;8.50;99.90;;;;;;5079551;28;20381;-63
2023/04/18 00:51:04;;;;;;;;;;;8.50;99.90;;;;;;5055863;28;20276;-62
2023/04/18 00:53:30;;;;;;;;;;;8.50;99.90;;;;;;5073975;28;19998;-62
2023/04/18 00:55:56;;;;;;;;;;;8.40;99.90;;;;;;5066431;28;20314;-62
2023/04/18 00:58:22;;;;;;;;;;;8.40;99.90;;;;;;5072447;28;20313;-62
2023/04/18 01:00:47;;;;;;;;;;;8.50;99.90;;;;;;5071136;28;19912;-62
2023/04/18 01:03:13;;;;;;;;;;;8.50;99.90;;;;;;5072711;28;20000;-62
2023/04/18 01:05:39;;;;;;;;;;;8.50;99.90;;;;;;5072008;28;19929;-63
2023/04/18 01:08:05;;;;;;;;;;;8.50;99.90;;;;;;5072045;28;20005;-63
2023/04/18 01:10:30;;;;;;;;;;;8.50;99.90;;;;;;5068735;28;19913;-62
2023/04/18 01:13:12;;;;;;;;;;;8.60;99.90;;;;;;5076585;28;19947;-63
2023/04/18 01:15:41;;;;;;;;;;;8.60;99.90;;;;;;5068311;28;19938;-64
2023/04/18 01:18:07;;;;;;;;;;;8.60;99.90;;;;;;5077718;28;20355;-62
2023/04/18 01:20:35;;;;;;;;;;;8.60;99.90;;;;;;5075361;28;19939;-62
2023/04/18 01:23:02;;;;;;;;;;;8.60;99.90;;;;;;5072379;28;20057;-62
2023/04/18 01:25:27;;;;;;;;;;;8.60;99.90;;;;;;5065223;28;20029;-62
2023/04/18 01:27:53;;;;;;;;;;;8.60;99.90;;;;;;5071384;28;20321;-62
2023/04/18 01:30:19;;;;;;;;;;;8.60;99.90;;;;;;5068685;28;20303;-61
2023/04/18 01:32:45;;;;;;;;;;;8.60;99.90;;;;;;5074287;28;20001;-61
2023/04/18 01:35:10;;;;;;;;;;;8.60;99.90;;;;;;5062841;28;19913;-62
2023/04/18 01:37:36;;;;;;;;;;;8.60;99.90;;;;;;5074503;28;19919;-61
2023/04/18 01:40:02;;;;;;;;;;;8.50;99.90;;;;;;5077594;28;19920;-62
2023/04/18 01:42:28;;;;;;;;;;;8.50;99.90;;;;;;5070501;28;19924;-62
2023/04/18 01:44:54;;;;;;;;;;;8.40;99.90;;;;;;5073871;28;20011;-63
2023/04/18 01:47:20;;;;;;;;;;;8.40;99.90;;;;;;5067152;28;20523;-63
2023/04/18 01:49:47;;;;;;;;;;;8.40;99.90;;;;;;5068654;28;19919;-61
2023/04/18 01:52:13;;;;;;;;;;;8.30;99.90;;;;;;5072057;28;19912;-63
2023/04/18 01:54:39;;;;;;;;;;;8.30;99.90;;;;;;5077787;28;19912;-62
2023/04/18 01:57:04;;;;;;;;;;;8.30;99.90;;;;;;5080855;28;19920;-62
2023/04/18 01:59:30;;;;;;;;;;;8.20;99.90;;;;;;5078218;28;19912;-62
2023/04/18 02:01:56;;;;;;;;;;;8.20;99.90;;;;;;5087780;28;20371;-62
2023/04/18 02:04:21;;;;;;;;;;;8.30;99.90;;;;;;5080641;28;20292;-62
2023/04/18 02:06:47;;;;;;;;;;;8.20;99.90;;;;;;5080807;28;19966;-61
2023/04/18 02:09:12;;;;;;;;;;;8.20;99.90;;;;;;5068252;28;19963;-62
2023/04/18 02:11:38;;;;;;;;;;;8.20;99.90;;;;;;5082072;28;19912;-62
2023/04/18 02:14:05;;;;;;;;;;;8.10;99.90;;;;;;5081446;28;19916;-61
2023/04/18 02:16:30;;;;;;;;;;;8.20;99.90;;;;;;5073383;28;19920;-62
2023/04/18 02:18:56;;;;;;;;;;;8.10;99.90;;;;;;5068694;28;19958;-61
2023/04/18 02:21:23;;;;;;;;;;;8.10;99.90;;;;;;5071718;28;19912;-61
2023/04/18 02:23:48;;;;;;;;;;;8.10;99.90;;;;;;5070146;28;19965;-62
2023/04/18 02:26:14;;;;;;;;;;;8.10;99.90;;;;;;5079580;28;19997;-62
2023/04/18 02:28:39;;;;;;;;;;;8.10;99.90;;;;;;5078663;28;19912;-62
2023/04/18 02:31:06;;;;;;;;;;;7.90;99.90;;;;;;5077100;28;19970;-61
2023/04/18 02:33:31;;;;;;;;;;;7.80;99.90;;;;;;5065268;28;19985;-63
2023/04/18 02:35:57;;;;;;;;;;;7.80;99.90;;;;;;5058771;28;20376;-62
2023/04/18 02:38:22;;;;;;;;;;;7.80;99.90;;;;;;5055802;28;19913;-62
2023/04/18 02:40:48;;;;;;;;;;;7.90;99.90;;;;;;5060701;28;20425;-61
2023/04/18 02:43:14;;;;;;;;;;;7.80;99.90;;;;;;5055142;28;19919;-61
2023/04/18 02:45:40;;;;;;;;;;;7.80;99.90;;;;;;5058661;28;20027;-62
2023/04/18 02:48:05;;;;;;;;;;;7.80;99.90;;;;;;5059748;28;19959;-61
2023/04/18 02:50:31;;;;;;;;;;;7.90;99.90;;;;;;5065761;28;20012;-62
2023/04/18 02:52:56;;;;;;;;;;;8.00;99.90;;;;;;5063579;28;20283;-62
2023/04/18 02:55:23;;;;;;;;;;;8.10;99.90;;;;;;5055713;28;20373;-61
2023/04/18 02:57:48;;;;;;;;;;;8.10;99.90;;;;;;5058931;28;19995;-61
2023/04/18 03:00:14;;;;;;;;;;;8.10;99.90;;;;;;5059274;28;20003;-61
2023/04/18 03:02:40;;;;;;;;;;;8.20;99.90;;;;;;5061363;28;20368;-62
2023/04/18 03:05:06;;;;;;;;;;;8.30;99.90;;;;;;5058195;28;19958;-63
2023/04/18 03:07:31;;;;;;;;;;;8.20;99.90;;;;;;5057215;28;19917;-61
2023/04/18 03:09:57;;;;;;;;;;;8.30;99.90;;;;;;5058467;28;19920;-63
2023/04/18 03:12:22;;;;;;;;;;;8.30;99.90;;;;;;5055220;28;19920;-62
2023/04/18 03:14:48;;;;;;;;;;;8.50;99.90;;;;;;5056669;28;19912;-62
2023/04/18 03:17:14;;;;;;;;;;;8.60;99.90;;;;;;5061786;28;19988;-61
2023/04/18 03:19:39;;;;;;;;;;;8.60;99.90;;;;;;5057959;28;20323;-61
2023/04/18 03:22:05;;;;;;;;;;;8.60;99.90;;;;;;5076574;28;20350;-62
2023/04/18 03:24:30;;;;;;;;;;;8.70;99.90;;;;;;5072107;28;19920;-63
2023/04/18 03:26:58;;;;;;;;;;;8.70;99.90;;;;;;5072346;28;20019;-63
2023/04/18 03:29:24;;;;;;;;;;;8.70;99.90;;;;;;5077032;28;20296;-63
2023/04/18 03:31:50;;;;;;;;;;;8.70;99.90;;;;;;5068881;28;20371;-62
2023/04/18 03:34:17;;;;;;;;;;;8.60;99.90;;;;;;5067507;28;20304;-63
2023/04/18 03:36:43;;;;;;;;;;;8.60;99.90;;;;;;5073202;28;19999;-62
2023/04/18 03:39:08;;;;;;;;;;;8.50;99.90;;;;;;5064873;28;19912;-63
2023/04/18 03:41:34;;;;;;;;;;;8.50;99.90;;;;;;5078401;28;19985;-61
2023/04/18 03:43:59;;;;;;;;;;;8.40;99.90;;;;;;5084659;28;20514;-61
2023/04/18 03:46:25;;;;;;;;;;;8.40;99.90;;;;;;5073557;28;19970;-61
2023/04/18 03:48:50;;;;;;;;;;;8.30;99.90;;;;;;5066909;28;19951;-63
2023/04/18 03:51:16;;;;;;;;;;;8.30;99.90;;;;;;5062357;28;20059;-62
2023/04/18 03:53:42;;;;;;;;;;;8.20;99.90;;;;;;5054278;28;20376;-62
2023/04/18 03:56:07;;;;;;;;;;;8.20;99.90;;;;;;5062700;28;19939;-61
2023/04/18 03:58:33;;;;;;;;;;;8.10;99.90;;;;;;5056420;28;19922;-62
2023/04/18 04:00:59;;;;;;;;;;;8.10;99.90;;;;;;5056739;28;19946;-61
2023/04/18 04:03:26;;;;;;;;;;;8.00;99.90;;;;;;5056916;28;20394;-61
2023/04/18 04:05:53;;;;;;;;;;;8.00;99.90;;;;;;5062379;28;20189;-61
2023/04/18 04:08:20;;;;;;;;;;;8.00;99.90;;;;;;5056286;28;20352;-62
2023/04/18 04:10:45;;;;;;;;;;;7.90;99.90;;;;;;5053103;28;20269;-62
2023/04/18 04:13:11;;;;;;;;;;;7.90;99.90;;;;;;5060302;28;19924;-62
2023/04/18 04:15:37;;;;;;;;;;;7.80;99.90;;;;;;5059402;28;20364;-61
2023/04/18 04:18:04;;;;;;;;;;;7.80;99.90;;;;;;5061080;28;19916;-61
2023/04/18 04:20:29;;;;;;;;;;;7.70;99.90;;;;;;5062884;28;19912;-62
2023/04/18 04:22:57;;;;;;;;;;;7.60;99.90;;;;;;5059602;28;19919;-62
2023/04/18 04:25:25;;;;;;;;;;;7.70;99.90;;;;;;5069582;28;20256;-61
2023/04/18 04:27:52;;;;;;;;;;;7.60;99.90;;;;;;5075193;28;19924;-61
2023/04/18 04:30:18;;;;;;;;;;;7.60;99.90;;;;;;5080433;28;19989;-62
2023/04/18 04:32:44;;;;;;;;;;;7.60;99.90;;;;;;5065373;28;21615;-62
2023/04/18 04:35:10;;;;;;;;;;;7.50;99.90;;;;;;5076494;28;20364;-62
2023/04/18 04:37:36;;;;;;;;;;;7.50;99.90;;;;;;5083103;28;19939;-61
2023/04/18 04:40:05;;;;;;;;;;;7.50;99.90;;;;;;5085800;28;19912;-61
2023/04/18 04:42:30;;;;;;;;;;;7.50;99.90;;;;;;5082152;28;20276;-61
2023/04/18 04:44:56;;;;;;;;;;;7.50;99.90;;;;;;5079041;28;20396;-61
2023/04/18 04:47:21;;;;;;;;;;;7.40;99.90;;;;;;5076472;28;19927;-61
2023/04/18 04:49:47;;;;;;;;;;;7.40;99.90;;;;;;5069454;28;19920;-62
2023/04/18 04:52:13;;;;;;;;;;;7.50;99.90;;;;;;5077851;28;19955;-62
2023/04/18 04:54:38;;;;;;;;;;;7.40;99.90;;;;;;5081776;28;19912;-62
2023/04/18 04:57:04;;;;;;;;;;;7.50;99.90;;;;;;5084189;28;20322;-61
2023/04/18 04:59:30;;;;;;;;;;;7.50;99.90;;;;;;5061116;28;19920;-62
2023/04/18 05:01:56;;;;;;;;;;;7.50;99.90;;;;;;5063978;28;19912;-61
2023/04/18 05:04:23;;;;;;;;;;;7.50;99.90;;;;;;5068010;28;19944;-62
2023/04/18 05:06:49;;;;;;;;;;;7.50;99.90;;;;;;5076075;28;19924;-62
2023/04/18 05:09:15;;;;;;;;;;;7.50;99.90;;;;;;5078641;28;19959;-62
2023/04/18 05:11:40;;;;;;;;;;;7.50;99.90;;;;;;5079938;28;20348;-61
2023/04/18 05:14:06;;;;;;;;;;;7.60;99.90;;;;;;5069268;28;20478;-62
2023/04/18 05:16:32;;;;;;;;;;;7.70;99.90;;;;;;5069796;28;19913;-61
2023/04/18 05:18:57;;;;;;;;;;;7.60;99.90;;;;;;5071239;28;20268;-62
2023/04/18 05:21:24;;;;;;;;;;;7.80;99.90;;;;;;5073677;28;19917;-62
2023/04/18 05:23:50;;;;;;;;;;;7.80;99.90;;;;;;5071784;28;20490;-61
2023/04/18 05:26:17;;;;;;;;;;;7.90;99.90;;;;;;5057366;28;20006;-60
2023/04/18 05:28:43;;;;;;;;;;;8.00;99.90;;;;;;5060866;28;20023;-62
2023/04/18 05:31:08;;;;;;;;;;;8.10;99.90;;;;;;5071037;28;19913;-61
2023/04/18 05:33:34;;;;;;;;;;;8.20;99.90;;;;;;5069729;28;19919;-62
2023/04/18 05:36:00;;;;;;;;;;;8.30;99.90;;;;;;5064570;28;19920;-60
2023/04/18 05:38:25;;;;;;;;;;;8.40;99.90;;;;;;5064793;28;19912;-61
2023/04/18 05:40:54;;;;;;;;;;;8.50;99.90;;;;;;5069718;28;20438;-61
2023/04/18 05:43:20;;;;;;;;;;;8.60;99.90;;;;;;5075619;28;20325;-62
2023/04/18 05:45:45;;;;;;;;;;;8.70;99.90;;;;;;5081201;28;20330;-62
2023/04/18 05:48:11;;;;;;;;;;;8.70;99.90;;;;;;5072451;28;19927;-62
2023/04/18 05:50:37;;;;;;;;;;;8.70;99.90;;;;;;5064864;28;20000;-62
2023/04/18 05:53:02;;;;;;;;;;;8.70;99.90;;;;;;5074467;28;20015;-63
2023/04/18 05:55:28;;;;;;;;;;;8.70;99.90;;;;;;5071340;28;19986;-61
2023/04/18 05:57:53;;;;;;;;;;;8.60;99.90;;;;;;5071562;28;20341;-61
2023/04/18 06:00:19;;;;;;;;;;;8.60;99.90;;;;;;5074546;28;20353;-61
2023/04/18 06:02:45;;;;;;;;;;;8.70;99.90;;;;;;5062407;28;19952;-63
2023/04/18 06:05:11;;;;;;;;;;;8.80;99.90;;;;;;5074875;28;19920;-62
2023/04/18 06:07:36;;;;;;;;;;;8.80;99.90;;;;;;5067728;28;20318;-61
2023/04/18 06:10:02;;;;;;;;;;;8.80;99.90;;;;;;5059446;28;19916;-61
2023/04/18 06:12:28;;;;;;;;;;;8.90;99.90;;;;;;5066986;28;19913;-63
2023/04/18 06:14:53;;;;;;;;;;;8.90;99.90;;;;;;5080637;28;19919;-63
2023/04/18 06:17:20;;;;;;;;;;;8.90;99.90;;;;;;5077549;28;20957;-61
2023/04/18 06:19:46;;;;;;;;;;;9.00;99.90;;;;;;5082696;28;19919;-61
2023/04/18 06:22:11;;;;;;;;;;;9.10;99.90;;;;;;5070424;28;19913;-61
2023/04/18 06:24:37;;;;;;;;;;;9.20;99.90;;;;;;5072711;28;19917;-62
2023/04/18 06:27:03;;;;;;;;;;;9.10;99.90;;;;;;5074113;28;20007;-62
2023/04/18 06:29:31;;;;;;;;;;;9.00;99.90;;;;;;5069635;28;19912;-62
2023/04/18 06:31:57;;;;;;;;;;;9.00;99.90;;;;;;5072785;28;20010;-61
2023/04/18 06:34:23;;;;;;;;;;;9.10;99.90;;;;;;5074206;28;19951;-60
2023/04/18 06:36:49;;;;;;;;;;;9.20;99.90;;;;;;5080780;28;19918;-60
2023/04/18 06:39:15;;;;;;;;;;;9.30;99.90;;;;;;5077784;28;19912;-60
2023/04/18 06:41:40;;;;;;;;;;;9.40;99.90;;;;;;5080110;28;19912;-62
2023/04/18 06:44:06;;;;;;;;;;;9.50;99.90;;;;;;5077270;28;21202;-61
2023/04/18 06:46:32;;;;;;;;;;;9.60;99.90;;;;;;5071034;28;20061;-61
2023/04/18 06:48:57;;;;;;;;;;;9.70;99.90;;;;;;5079370;28;19920;-62
2023/04/18 06:51:23;;;;;;;;;;;9.50;99.90;;;;;;5069887;28;19943;-62
2023/04/18 06:53:51;;;;;;;;;;;9.40;99.90;;;;;;5075237;28;19920;-61
2023/04/18 06:56:20;;;;;;;;;;;9.50;99.90;;;;;;5079837;28;19935;-61
2023/04/18 06:58:46;;;;;;;;;;;9.50;99.90;;;;;;5075828;28;19913;-61
2023/04/18 07:01:11;;;;;;;;;;;9.50;99.90;;;;;;5071245;28;19917;-62
2023/04/18 07:03:39;;;;;;;;;;;9.40;99.90;;;;;;5063786;28;19912;-61
2023/04/18 07:06:07;;;;;;;;;;;9.40;99.90;;;;;;5070876;28;19947;-62
2023/04/18 07:08:34;;;;;;;;;;;9.30;99.90;;;;;;5061870;28;19927;-62
2023/04/18 07:11:00;;;;;;;;;;;9.30;99.90;;;;;;5059432;28;19920;-62
2023/04/18 07:13:25;;;;;;;;;;;9.30;99.90;;;;;;5061559;28;19912;-63
2023/04/18 07:15:51;;;;;;;;;;;9.20;99.90;;;;;;5064759;28;19916;-63
2023/04/18 07:18:16;;;;;;;;;;;9.30;99.90;;;;;;5061327;28;20276;-63
2023/04/18 07:20:42;;;;;;;;;;;9.30;99.90;;;;;;5072324;28;20315;-62
2023/04/18 07:23:09;;;;;;;;;;;9.30;99.90;;;;;;5067318;28;19913;-62
2023/04/18 07:25:35;;;;;;;;;;;9.30;99.90;;;;;;5061977;28;20351;-62
2023/04/18 07:28:01;;;;;;;;;;;9.40;99.90;;;;;;5062591;28;20396;-63
2023/04/18 07:30:26;;;;;;;;;;;9.50;99.90;;;;;;5071739;28;19912;-62
2023/04/18 07:32:52;;;;;;;;;;;9.60;99.90;;;;;;5072050;28;19917;-63
2023/04/18 07:35:18;;;;;;;;;;;9.60;99.90;;;;;;5052899;28;19981;-62
2023/04/18 07:37:44;;;;;;;;;;;9.70;99.90;;;;;;5074126;28;19912;-61
2023/04/18 07:40:10;;;;;;;;;;;9.90;99.90;;;;;;5071152;28;19912;-62
2023/04/18 07:42:36;;;;;;;;;;;10.00;99.90;;;;;;5064291;28;19952;-63
2023/04/18 07:45:01;;;;;;;;;;;10.20;99.90;;;;;;5058824;28;19947;-60
2023/04/18 07:47:27;;;;;;;;;;;10.20;99.90;;;;;;5063369;28;19921;-63
2023/04/18 07:49:53;;;;;;;;;;;10.30;99.90;;;;;;5071302;28;19970;-62
2023/04/18 07:52:18;;;;;;;;;;;10.30;99.90;;;;;;5066822;28;19995;-61
2023/04/18 07:54:44;;;;;;;;;;;10.40;99.90;;;;;;5060516;28;19924;-62
2023/04/18 07:57:10;;;;;;;;;;;10.50;99.90;;;;;;5065495;28;20272;-62
2023/04/18 07:59:35;;;;;;;;;;;10.40;99.90;;;;;;5069353;28;19916;-61
2023/04/18 08:02:01;;;;;;;;;;;10.40;99.90;;;;;;5063811;28;19913;-62
2023/04/18 08:04:27;;;;;;;;;;;10.50;99.90;;;;;;5070674;28;19991;-62
2023/04/18 08:06:53;;;;;;;;;;;10.50;99.90;;;;;;5064609;28;19925;-62
2023/04/18 08:09:19;;;;;;;;;;;10.40;99.90;;;;;;5068054;28;19943;-61
2023/04/18 08:11:45;;;;;;;;;;;10.20;99.90;;;;;;5065995;28;19921;-63
2023/04/18 08:14:10;;;;;;;;;;;10.20;99.90;;;;;;5071957;28;19999;-61
2023/04/18 08:16:36;;;;;;;;;;;10.20;99.90;;;;;;5059195;28;19913;-61
2023/04/18 08:19:02;;;;;;;;;;;10.50;99.90;;;;;;5064134;28;19913;-61
2023/04/18 08:21:27;;;;;;;;;;;10.60;99.90;;;;;;5068712;28;19917;-62
2023/04/18 08:23:53;;;;;;;;;;;10.60;99.90;;;;;;5067715;28;19939;-60
2023/04/18 08:26:19;;;;;;;;;;;10.40;99.90;;;;;;5067365;28;20012;-62
2023/04/18 08:28:44;;;;;;;;;;;10.40;99.90;;;;;;5066140;28;19916;-61
2023/04/18 08:31:10;;;;;;;;;;;10.40;99.90;;;;;;5057515;28;19935;-62
2023/04/18 08:33:36;;;;;;;;;;;10.50;99.90;;;;;;5065571;28;19916;-61
2023/04/18 08:36:02;;;;;;;;;;;10.50;99.90;;;;;;5063985;28;19999;-60
2023/04/18 08:38:27;;;;;;;;;;;10.60;99.90;;;;;;5076875;28;19951;-62
2023/04/18 08:40:53;;;;;;;;;;;10.80;99.90;;;;;;5089289;28;19968;-63
2023/04/18 08:43:18;;;;;;;;;;;11.00;99.90;;;;;;5068584;28;20023;-63
2023/04/18 08:45:44;;;;;;;;;;;11.00;99.90;;;;;;5058347;28;19921;-62
2023/04/18 08:48:11;;;;;;;;;;;11.10;99.90;;;;;;5060229;28;19933;-63
2023/04/18 08:50:37;;;;;;;;;;;11.30;99.90;;;;;;5058505;28;19913;-63
2023/04/18 08:53:03;;;;;;;;;;;11.40;99.90;;;;;;5066090;28;19975;-62
2023/04/18 08:55:29;;;;;;;;;;;11.70;99.90;;;;;;5074404;28;20387;-62
2023/04/18 08:57:54;;;;;;;;;;;11.80;99.90;;;;;;5065715;28;20011;-60
2023/04/18 09:00:21;;;;;;;;;;;11.80;99.90;;;;;;5067096;28;19924;-64
2023/04/18 09:02:48;;;;;;;;;;;11.60;99.90;;;;;;5063246;28;19955;-62
2023/04/18 09:05:15;;;;;;;;;;;11.40;99.90;;;;;;5063773;28;19967;-62
2023/04/18 09:07:41;;;;;;;;;;;11.60;99.90;;;;;;5065896;28;19932;-63
2023/04/18 09:10:07;;;;;;;;;;;11.90;99.90;;;;;;5067109;28;20379;-62
2023/04/18 09:12:41;;;;;;;;;;;12.20;99.90;;;;;;5069354;28;19913;-62
2023/04/18 09:15:14;;;;;;;;;;;12.40;99.90;;;;;;5069163;28;19970;-63
2023/04/18 09:17:52;;;;;;;;;;;12.40;99.90;;;;;;5065604;28;19917;-62
2023/04/18 09:20:39;;;;;;;;;;;12.40;99.90;;;;;;5066474;28;20479;-62
2023/04/18 09:23:09;;;;;;;;;;;12.70;99.90;;;;;;5063496;28;19978;-61
2023/04/18 09:25:36;;;;;;;;;;;13.00;99.90;;;;;;5073402;28;19919;-62
2023/04/18 09:28:03;;;;;;;;;;;13.10;99.90;;;;;;5068532;28;20339;-60
2023/04/18 09:30:36;;;;;;;;;;;13.40;99.90;;;;;;5073804;28;19920;-62
2023/04/18 09:33:03;;;;;;;;;;;13.50;99.90;;;;;;5058595;28;19917;-66
2023/04/18 09:35:30;;;;;;;;;;;13.70;99.90;;;;;;5063791;28;19921;-62
2023/04/18 09:37:55;;;;;;;;;;;13.50;99.90;;;;;;5061735;28;19912;-62
2023/04/18 09:40:22;;;;;;;;;;;13.50;99.90;;;;;;5061526;28;20003;-61
2023/04/18 09:42:49;;;;;;;;;;;13.50;99.90;;;;;;5059985;28;20368;-63
2023/04/18 09:45:15;;;;;;;;;;;13.30;99.90;;;;;;5064461;28;20461;-62
2023/04/18 09:47:41;;;;;;;;;;;13.30;99.90;;;;;;5066414;28;19936;-62
2023/04/18 09:50:08;;;;;;;;;;;13.10;99.90;;;;;;5060450;28;19957;-63
2023/04/18 09:52:39;;;;;;;;;;;12.90;99.90;;;;;;5058171;28;19928;-64
2023/04/18 09:55:08;;;;;;;;;;;12.80;99.90;;;;;;5060078;28;19924;-63
2023/04/18 09:57:34;;;;;;;;;;;12.60;99.90;;;;;;5051077;28;19916;-63
2023/04/18 10:00:09;;;;;;;;;;;12.40;99.90;;;;;;5063237;28;20074;-64
2023/04/18 10:02:46;;;;;;;;;;;12.50;99.90;;;;;;5057713;28;20551;-64
2023/04/18 10:05:12;;;;;;;;;;;12.70;99.90;;;;;;5062125;28;19927;-63
2023/04/18 10:07:38;;;;;;;;;;;13.00;99.90;;;;;;5053374;28;19928;-62
2023/04/18 10:10:04;;;;;;;;;;;13.30;99.90;;;;;;5062892;28;19913;-63
2023/04/18 10:12:30;;;;;;;;;;;13.50;99.90;;;;;;5062623;28;19913;-62
2023/04/18 10:14:56;;;;;;;;;;;13.70;99.90;;;;;;5053368;28;19913;-63
2023/04/18 10:17:21;;;;;;;;;;;13.70;99.90;;;;;;5060603;28;20875;-63
2023/04/18 10:20:02;;;;;;;;;;;13.50;99.90;;;;;;5061560;28;19921;-62
2023/04/18 10:22:28;;;;;;;;;;;13.80;99.90;;;;;;5066454;28;20102;-62
2023/04/18 10:24:54;;;;;;;;;;;14.20;99.90;;;;;;5063491;28;20019;-62
2023/04/18 10:27:39;;;;;;;;;;;14.40;99.90;;;;;;5061873;28;19924;-63
2023/04/18 10:30:05;;;;;;;;;;;14.50;99.90;;;;;;5061547;28;19958;-63
2023/04/18 10:32:32;;;;;;;;;;;14.40;99.90;;;;;;5064988;28;19912;-63
2023/04/18 10:34:58;;;;;;;;;;;14.50;99.90;;;;;;5068700;28;19912;-63
2023/04/18 10:37:25;;;;;;;;;;;14.50;99.90;;;;;;5065649;28;19969;-66
2023/04/18 10:39:58;;;;;;;;;;;14.60;99.90;;;;;;5075304;28;19927;-63
2023/04/18 10:42:45;;;;;;;;;;;14.50;99.90;;;;;;5068677;28;20299;-64
2023/04/18 10:45:24;;;;;;;;;;;14.10;99.90;;;;;;5067763;28;19920;-63
2023/04/18 10:48:10;;;;;;;;;;;14.00;99.90;;;;;;5067567;28;19920;-63
2023/04/18 10:50:55;;;;;;;;;;;13.80;99.90;;;;;;5068005;28;20271;-63
2023/04/18 10:53:21;;;;;;;;;;;13.60;99.90;;;;;;5071983;28;20210;-62
2023/04/18 10:55:51;;;;;;;;;;;13.40;99.90;;;;;;5068485;28;19917;-62
2023/04/18 10:58:16;;;;;;;;;;;13.10;99.90;;;;;;5066609;28;20295;-62
2023/04/18 11:00:42;;;;;;;;;;;12.80;99.90;;;;;;5066315;28;19913;-62
2023/04/18 11:03:08;;;;;;;;;;;12.80;99.90;;;;;;5061778;28;19927;-61
2023/04/18 11:05:34;;;;;;;;;;;12.80;99.90;;;;;;5068509;28;19917;-62
2023/04/18 11:08:02;;;;;;;;;;;12.80;99.90;;;;;;5063225;28;19920;-62
2023/04/18 11:10:28;;;;;;;;;;;13.00;99.90;;;;;;5065328;28;19999;-62
2023/04/18 11:12:54;;;;;;;;;;;13.20;99.90;;;;;;5064340;28;20410;-61
2023/04/18 11:15:21;;;;;;;;;;;13.10;99.90;;;;;;5076552;28;20292;-62
2023/04/18 11:17:56;;;;;;;;;;;13.10;99.90;;;;;;5063849;28;19916;-62
2023/04/18 11:20:22;;;;;;;;;;;13.20;99.90;;;;;;5067552;28;20291;-62
2023/04/18 11:22:55;;;;;;;;;;;13.20;99.90;;;;;;5066962;28;20497;-62
2023/04/18 11:25:33;;;;;;;;;;;13.30;99.90;;;;;;5073422;28;20502;-63
2023/04/18 11:27:59;;;;;;;;;;;13.80;99.90;;;;;;5063883;28;20411;-63
2023/04/18 11:30:25;;;;;;;;;;;14.20;99.90;;;;;;5071883;28;19919;-62
2023/04/18 11:32:53;;;;;;;;;;;14.40;99.90;;;;;;5062149;28;20276;-63
2023/04/18 11:35:19;;;;;;;;;;;14.20;99.90;;;;;;5069346;28;19921;-62
2023/04/18 11:37:45;;;;;;;;;;;13.70;99.90;;;;;;5059002;28;19924;-62
2023/04/18 11:40:12;;;;;;;;;;;13.40;99.90;;;;;;5066754;28;20011;-61
2023/04/18 11:42:38;;;;;;;;;;;13.20;99.90;;;;;;5065009;28;19912;-62
2023/04/18 11:45:11;;;;;;;;;;;13.40;99.90;;;;;;5066446;28;19932;-63
2023/04/18 11:47:37;;;;;;;;;;;13.70;99.90;;;;;;5066286;28;20050;-63
2023/04/18 11:50:04;;;;;;;;;;;14.00;99.90;;;;;;5065673;28;20003;-64
2023/04/18 11:52:31;;;;;;;;;;;13.80;99.90;;;;;;5064467;28;20446;-63
2023/04/18 11:55:13;;;;;;;;;;;13.70;99.90;;;;;;5075878;28;20276;-63
2023/04/18 11:57:40;;;;;;;;;;;13.70;99.90;;;;;;5064709;28;20336;-62
2023/04/18 12:00:07;;;;;;;;;;;13.80;99.90;;;;;;5069904;28;19919;-65
2023/04/18 12:02:41;;;;;;;;;;;13.90;99.90;;;;;;5067447;28;19951;-63
2023/04/18 12:05:07;;;;;;;;;;;13.90;99.90;;;;;;5062396;28;19920;-62
2023/04/18 12:07:40;;;;;;;;;;;13.70;99.90;;;;;;5061869;28;19929;-63
2023/04/18 12:10:07;;;;;;;;;;;13.50;99.90;;;;;;5064395;28;19912;-63
2023/04/18 12:12:33;;;;;;;;;;;13.30;99.90;;;;;;5058241;28;19919;-62
2023/04/18 12:14:59;;;;;;;;;;;13.30;99.90;;;;;;5061752;28;20501;-63
2023/04/18 12:17:25;;;;;;;;;;;13.30;99.90;;;;;;5062331;28;20375;-60
2023/04/18 12:19:52;;;;;;;;;;;13.60;99.90;;;;;;5066941;28;19947;-62
2023/04/18 12:22:18;;;;;;;;;;;13.80;99.90;;;;;;5064495;28;20372;-62
2023/04/18 12:24:43;;;;;;;;;;;13.80;99.90;;;;;;5063805;28;20012;-61
2023/04/18 12:27:10;;;;;;;;;;;14.10;99.90;;;;;;5062673;28;20356;-63
2023/04/18 12:29:36;;;;;;;;;;;14.10;99.90;;;;;;5066343;28;19962;-62
2023/04/18 12:32:02;;;;;;;;;;;13.90;99.90;;;;;;5069679;28;19916;-62
2023/04/18 12:34:27;;;;;;;;;;;13.50;99.90;;;;;;5063745;28;20380;-64
2023/04/18 12:36:53;;;;;;;;;;;13.20;99.90;;;;;;5061273;28;19974;-62
2023/04/18 12:39:19;;;;;;;;;;;12.90;99.90;;;;;;5062673;28;19912;-63
2023/04/18 12:41:45;;;;;;;;;;;12.90;99.90;;;;;;5064590;28;19912;-64
2023/04/18 12:44:11;;;;;;;;;;;13.10;99.90;;;;;;5060153;28;19920;-63
2023/04/18 12:46:36;;;;;;;;;;;13.20;99.90;;;;;;5064195;28;19947;-64
2023/04/18 12:49:02;;;;;;;;;;;13.60;99.90;;;;;;5062465;28;19912;-63
2023/04/18 12:51:28;;;;;;;;;;;13.70;99.90;;;;;;5066123;28;19917;-65
2023/04/18 12:53:53;;;;;;;;;;;13.70;99.90;;;;;;5062017;28;19917;-62
2023/04/18 12:56:19;;;;;;;;;;;13.30;99.90;;;;;;5064878;28;19912;-63
2023/04/18 12:58:45;;;;;;;;;;;13.10;99.90;;;;;;5059970;28;20319;-63
2023/04/18 13:01:12;;;;;;;;;;;12.90;99.90;;;;;;5062413;28;20591;-62
2023/04/18 13:03:38;;;;;;;;;;;12.60;99.90;;;;;;5060923;28;19959;-62
2023/04/18 13:06:04;;;;;;;;;;;12.40;99.90;;;;;;5060683;28;19960;-63
2023/04/18 13:08:30;;;;;;;;;;;12.20;99.90;;;;;;5061565;28;19916;-63
2023/04/18 13:10:56;;;;;;;;;;;12.10;99.90;;;;;;5056490;28;19968;-64
2023/04/18 13:13:22;;;;;;;;;;;11.90;99.90;;;;;;5055721;28;19916;-62
2023/04/18 13:15:47;;;;;;;;;;;12.00;99.90;;;;;;5056305;28;19982;-62
2023/04/18 13:18:13;;;;;;;;;;;12.10;99.90;;;;;;5054983;28;20003;-64
2023/04/18 13:20:39;;;;;;;;;;;12.10;99.90;;;;;;5052599;28;19913;-63
2023/04/18 13:23:04;;;;;;;;;;;11.90;99.90;;;;;;5057354;28;19913;-63
2023/04/18 13:25:30;;;;;;;;;;;11.90;99.90;;;;;;5056429;28;19999;-63
2023/04/18 13:27:57;;;;;;;;;;;11.80;99.90;;;;;;5055847;28;19927;-63
2023/04/18 13:30:22;;;;;;;;;;;11.80;99.90;;;;;;5063009;28;19920;-62
2023/04/18 13:32:48;;;;;;;;;;;11.80;99.90;;;;;;5054449;28;19923;-62
2023/04/18 13:35:13;;;;;;;;;;;11.70;99.90;;;;;;5052778;28;19916;-62
2023/04/18 13:37:39;;;;;;;;;;;11.60;99.90;;;;;;5051819;28;19921;-62
2023/04/18 13:40:05;;;;;;;;;;;11.60;99.90;;;;;;5054795;28;19913;-63
2023/04/18 13:42:32;;;;;;;;;;;11.50;99.90;;;;;;5044613;28;19920;-62
2023/04/18 13:44:58;;;;;;;;;;;11.40;99.90;;;;;;4990064;28;1945369;-63
2023/04/18 13:47:24;;;;;;;;;;;11.40;99.90;;;;;;5056503;28;19924;-61
2023/04/18 13:49:50;;;;;;;;;;;11.40;99.90;;;;;;5060479;28;19912;-62
2023/04/18 13:52:16;;;;;;;;;;;11.30;99.90;;;;;;5059111;28;19935;-62
2023/04/18 13:54:42;;;;;;;;;;;11.30;99.90;;;;;;5058980;28;20004;-62
2023/04/18 13:57:10;;;;;;;;;;;11.20;99.90;;;;;;5051264;28;19920;-62
2023/04/18 13:59:37;;;;;;;;;;;11.20;99.90;;;;;;5057817;28;19963;-62
2023/04/18 14:02:03;;;;;;;;;;;11.10;99.90;;;;;;5059052;28;19992;-62
2023/04/18 14:04:30;;;;;;;;;;;11.00;99.90;;;;;;5063171;28;19962;-64
2023/04/18 14:06:56;;;;;;;;;;;10.90;99.90;;;;;;5060759;28;19983;-63
2023/04/18 14:09:21;;;;;;;;;;;10.80;99.90;;;;;;5064509;28;20151;-62
2023/04/18 14:11:47;;;;;;;;;;;10.80;99.90;;;;;;5055367;28;19981;-62
2023/04/18 14:14:13;;;;;;;;;;;10.70;99.90;;;;;;5057261;28;19913;-62
2023/04/18 14:16:39;;;;;;;;;;;10.80;99.90;;;;;;5076323;28;19952;-61
2023/04/18 14:19:05;;;;;;;;;;;11.00;99.90;;;;;;5051778;28;19948;-61
2023/04/18 14:21:30;;;;;;;;;;;11.10;99.90;;;;;;5058910;28;19916;-61